Comandante Luis Piedra Buena, Argentina
Current Conditions -  °F | °C
As of 5:00 AM on Saturday 20 Dec 2014 (Local Time) from SAWG Reporting Station
Clear Clear  
Wind Chill: 32°   Ceiling: Unl
Heat Index: 41°   Visibility: 6mi
Dew Point: 34°   Wind: 18mph
Humidity: 76%   Direction: 250°WSW
Pressure: 29.32"   Gusts: NA
Location:  49.98°S, 68.9°W
Report Text: SAWG 200800Z 25016KT CAVOK 05/01 Q0993
Loading
Personal Weather Stations






























Interactive Weather Map New forecast layout! Learn more

10-Day Weather Forecast

Advertisements
Track Severe Weather on mobile